createdAt,value
2019-01-17T00:01:33.632Z,6.08
2019-01-17T00:04:28.772Z,7.97
2019-01-17T00:07:20.954Z,5.15
2019-01-17T00:10:09.984Z,4.80
2019-01-17T00:12:57.159Z,4.83
2019-01-17T00:15:42.486Z,4.97
2019-01-17T00:18:26.368Z,6.92
2019-01-17T00:21:09.875Z,7.08
2019-01-17T00:23:52.711Z,5.55
2019-01-17T00:26:40.493Z,6.00
2019-01-17T00:29:35.513Z,6.20
2019-01-17T00:32:27.652Z,4.53
2019-01-17T00:35:18.596Z,5.25
2019-01-17T00:38:10.485Z,6.92
2019-01-17T00:41:11.533Z,5.58
2019-01-17T00:43:56.190Z,5.22
2019-01-17T00:46:51.340Z,5.62
2019-01-17T00:49:46.309Z,5.28
2019-01-17T00:52:34.058Z,5.67
2019-01-17T00:55:16.249Z,4.50
2019-01-17T00:57:57.790Z,5.53
2019-01-17T01:00:49.943Z,4.40
2019-01-17T01:03:37.669Z,8.03
2019-01-17T01:06:32.818Z,4.03
2019-01-17T01:09:21.386Z,5.70
2019-01-17T01:12:10.582Z,3.60
2019-01-17T01:15:02.459Z,5.62
2019-01-17T01:17:48.050Z,4.35
2019-01-17T01:20:40.247Z,3.15
2019-01-17T01:23:35.181Z,4.35
2019-01-17T01:26:24.390Z,4.58
2019-01-17T01:29:24.517Z,4.83
2019-01-17T01:32:12.383Z,2.67
2019-01-17T01:35:01.379Z,5.20
2019-01-17T01:38:02.681Z,5.35
2019-01-17T01:40:43.192Z,4.50
2019-01-17T01:43:41.131Z,4.37
2019-01-17T01:46:20.993Z,3.17
2019-01-17T01:49:18.057Z,3.85
2019-01-17T01:52:01.183Z,3.12
2019-01-17T01:54:31.324Z,5.30
2019-01-17T01:57:01.397Z,4.62
2019-01-17T01:59:31.681Z,4.65
2019-01-17T02:02:01.802Z,3.40
2019-01-17T02:04:31.977Z,4.20
2019-01-17T02:07:02.116Z,6.08
2019-01-17T02:09:32.451Z,5.25
2019-01-17T02:12:02.576Z,4.40
2019-01-17T02:14:32.915Z,6.50
2019-01-17T02:17:03.267Z,4.28
2019-01-17T02:19:33.542Z,4.40
2019-01-17T02:22:03.609Z,6.28
2019-01-17T02:24:33.777Z,5.10
2019-01-17T02:27:03.827Z,6.72
2019-01-17T02:29:33.955Z,8.93
2019-01-17T02:32:04.070Z,8.38
2019-01-17T02:34:34.248Z,8.50
2019-01-17T02:37:04.346Z,8.33
2019-01-17T02:39:34.491Z,7.25
2019-01-17T02:42:04.521Z,8.60
2019-01-17T02:44:34.588Z,6.97
2019-01-17T02:47:05.728Z,11.35
2019-01-17T02:49:35.899Z,8.88
2019-01-17T02:52:06.153Z,8.33
2019-01-17T02:54:36.327Z,8.18
2019-01-17T02:57:06.403Z,8.10
2019-01-17T02:59:36.657Z,7.20
2019-01-17T03:02:06.754Z,7.28
2019-01-17T03:04:36.993Z,8.58
2019-01-17T03:07:07.100Z,7.90
2019-01-17T03:09:37.452Z,7.55
2019-01-17T03:12:07.527Z,9.43
2019-01-17T03:14:37.744Z,9.13
2019-01-17T03:17:07.945Z,12.05
2019-01-17T03:19:49.854Z,13.30
2019-01-17T03:22:20.065Z,9.85
2019-01-17T03:24:50.279Z,10.08
2019-01-17T03:27:20.251Z,9.65
2019-01-17T03:29:50.413Z,8.38
2019-01-17T03:32:20.524Z,11.75
2019-01-17T03:34:50.781Z,10.88
2019-01-17T03:37:20.819Z,10.68
2019-01-17T03:39:50.995Z,9.53
2019-01-17T03:42:21.092Z,8.48
2019-01-17T03:44:51.271Z,9.35
2019-01-17T03:47:21.387Z,7.60
2019-01-17T03:49:51.391Z,7.78
2019-01-17T03:52:21.417Z,8.63
2019-01-17T03:54:53.952Z,9.25
2019-01-17T03:57:23.323Z,7.25
2019-01-17T03:59:53.550Z,8.00
2019-01-17T04:02:23.687Z,10.70
2019-01-17T04:04:53.864Z,9.33
2019-01-17T04:07:23.981Z,12.28
2019-01-17T04:09:54.093Z,10.40
2019-01-17T04:12:24.165Z,10.45
2019-01-17T04:14:54.385Z,8.18
2019-01-17T04:17:24.547Z,9.78
2019-01-17T04:19:54.664Z,10.20
2019-01-17T04:22:25.779Z,9.48
2019-01-17T04:24:57.416Z,8.05
2019-01-17T04:27:27.707Z,13.98
2019-01-17T04:29:57.867Z,6.37
2019-01-17T04:32:28.135Z,9.73
2019-01-17T04:34:58.410Z,7.87
2019-01-17T04:37:28.532Z,8.73
2019-01-17T04:39:58.783Z,6.67
2019-01-17T04:42:28.904Z,10.85
2019-01-17T04:44:59.071Z,11.33
2019-01-17T04:47:29.167Z,11.78
2019-01-17T04:49:59.315Z,7.80
2019-01-17T04:52:29.373Z,7.83
2019-01-17T04:55:05.003Z,9.15
2019-01-17T04:57:31.320Z,7.75
2019-01-17T05:00:01.449Z,10.40
2019-01-17T05:02:31.548Z,16.12
2019-01-17T05:05:01.940Z,9.53
2019-01-17T05:07:32.035Z,11.20
2019-01-17T05:10:02.119Z,10.55
2019-01-17T05:12:32.260Z,8.78
2019-01-17T05:15:02.340Z,8.05
2019-01-17T05:17:32.481Z,10.00
2019-01-17T05:20:02.623Z,8.83
2019-01-17T05:22:32.665Z,9.53
2019-01-17T05:25:02.813Z,9.43
2019-01-17T05:27:32.816Z,9.38
2019-01-17T05:30:02.928Z,7.62
2019-01-17T05:32:36.652Z,10.03
2019-01-17T05:35:05.243Z,9.00
2019-01-17T05:37:35.289Z,10.85
2019-01-17T05:40:06.932Z,8.10
2019-01-17T05:42:36.987Z,11.65
2019-01-17T05:45:07.553Z,9.00
2019-01-17T05:47:37.602Z,8.05
2019-01-17T05:50:09.079Z,12.18
2019-01-17T05:52:39.129Z,12.20
2019-01-17T05:55:09.224Z,13.40
2019-01-17T05:57:39.158Z,7.03
2019-01-17T06:00:13.012Z,9.73
2019-01-17T06:02:43.050Z,8.30
2019-01-17T06:05:14.724Z,8.00
2019-01-17T06:07:44.819Z,10.43
2019-01-17T06:10:15.005Z,10.30
2019-01-17T06:12:45.095Z,8.90
2019-01-17T06:15:17.147Z,8.68
2019-01-17T06:17:47.108Z,9.10
2019-01-17T06:20:17.739Z,8.48
2019-01-17T06:22:47.763Z,7.58
2019-01-17T06:25:18.068Z,9.23
2019-01-17T06:27:48.445Z,5.10
2019-01-17T06:30:18.635Z,8.00
2019-01-17T06:32:48.835Z,10.28
2019-01-17T06:35:18.923Z,8.10
2019-01-17T06:37:49.001Z,7.85
2019-01-17T06:40:24.903Z,8.65
2019-01-17T06:42:55.044Z,6.58
2019-01-17T06:45:25.281Z,11.05
2019-01-17T06:47:55.389Z,10.15
2019-01-17T06:50:25.467Z,7.78
2019-01-17T06:52:55.507Z,6.28
2019-01-17T06:55:25.677Z,9.65
2019-01-17T06:57:55.769Z,8.10
2019-01-17T07:00:25.979Z,7.12
2019-01-17T07:02:55.963Z,6.55
2019-01-17T07:05:26.195Z,8.38
2019-01-17T07:07:56.209Z,9.33
2019-01-17T07:10:26.455Z,5.62
2019-01-17T07:12:56.570Z,8.10
2019-01-17T07:15:26.659Z,5.47
2019-01-17T07:17:56.785Z,6.22
2019-01-17T07:20:26.896Z,6.33
2019-01-17T07:22:56.999Z,5.22
2019-01-17T07:25:27.157Z,5.53
2019-01-17T07:27:57.341Z,6.53
2019-01-17T07:30:27.457Z,4.95
2019-01-17T07:32:57.601Z,4.47
2019-01-17T07:35:27.711Z,7.25
2019-01-17T07:37:57.849Z,4.50
2019-01-17T07:40:28.029Z,5.67
2019-01-17T07:42:58.200Z,4.05
2019-01-17T07:45:29.945Z,6.17
2019-01-17T07:48:00.009Z,5.92
2019-01-17T07:50:30.169Z,4.25
2019-01-17T07:53:00.307Z,6.08
2019-01-17T07:55:30.629Z,5.67
2019-01-17T07:58:00.745Z,4.58
2019-01-17T08:00:30.961Z,5.70
2019-01-17T08:03:01.037Z,4.42
2019-01-17T08:05:31.060Z,3.98
2019-01-17T08:08:01.313Z,4.78
2019-01-17T08:10:31.415Z,4.28
2019-01-17T08:13:01.575Z,5.10
2019-01-17T08:15:31.609Z,3.95
2019-01-17T08:18:01.998Z,5.40
2019-01-17T08:20:32.093Z,4.70
2019-01-17T08:23:02.234Z,5.40
2019-01-17T08:25:32.266Z,8.73
2019-01-17T08:28:02.458Z,5.70
2019-01-17T08:30:32.451Z,5.00
2019-01-17T08:33:02.624Z,4.95
2019-01-17T08:35:32.682Z,5.25
2019-01-17T08:38:02.815Z,5.30
2019-01-17T08:40:34.048Z,5.92
2019-01-17T08:43:04.268Z,4.62
2019-01-17T08:45:34.418Z,4.47
2019-01-17T08:48:04.581Z,5.53
2019-01-17T08:50:34.724Z,4.53
2019-01-17T08:53:04.805Z,7.10
2019-01-17T08:55:34.880Z,4.20
2019-01-17T08:58:05.117Z,6.03
2019-01-17T09:00:35.295Z,5.25
2019-01-17T09:03:05.403Z,3.83
2019-01-17T09:05:35.496Z,5.45
2019-01-17T09:08:05.614Z,4.05
2019-01-17T09:10:35.739Z,5.55
2019-01-17T09:13:05.914Z,4.40
2019-01-17T09:15:36.581Z,4.53
2019-01-17T09:18:06.863Z,4.67
2019-01-17T09:20:37.013Z,5.10
2019-01-17T09:23:07.278Z,4.17
2019-01-17T09:25:37.406Z,4.08
2019-01-17T09:28:07.556Z,4.58
2019-01-17T09:30:37.707Z,5.95
2019-01-17T09:33:07.804Z,6.03
2019-01-17T09:35:37.955Z,5.42
2019-01-17T09:38:08.162Z,4.35
2019-01-17T09:40:38.217Z,4.55
2019-01-17T09:43:08.437Z,5.72
2019-01-17T09:45:38.563Z,4.12
2019-01-17T09:48:08.687Z,5.53
2019-01-17T09:50:38.756Z,5.33
2019-01-17T09:53:08.856Z,4.95
2019-01-17T09:55:39.036Z,6.33
2019-01-17T09:58:09.162Z,3.22
2019-01-17T10:00:39.549Z,3.40
2019-01-17T10:03:09.620Z,4.08
2019-01-17T10:05:39.645Z,3.85
2019-01-17T10:08:09.736Z,3.08
2019-01-17T10:10:39.756Z,3.77
2019-01-17T10:13:09.828Z,5.05
2019-01-17T10:15:59.273Z,4.50
2019-01-17T10:19:07.031Z,4.45
2019-01-17T10:22:18.789Z,4.10
2019-01-17T10:25:17.905Z,4.17
2019-01-17T10:28:13.130Z,3.25
2019-01-17T10:31:07.249Z,4.53
2019-01-17T10:33:51.831Z,4.45
2019-01-17T10:37:24.444Z,4.00
2019-01-17T10:40:35.434Z,5.60
2019-01-17T10:43:46.848Z,4.35
2019-01-17T10:46:53.817Z,4.72
2019-01-17T10:49:47.574Z,3.15
2019-01-17T10:52:43.269Z,3.75
2019-01-17T10:55:48.092Z,3.37
2019-01-17T10:58:37.185Z,2.33
2019-01-17T11:01:40.942Z,4.70
2019-01-17T11:04:41.672Z,2.55
2019-01-17T11:07:48.252Z,2.17
2019-01-17T11:10:37.938Z,2.72
2019-01-17T11:13:44.684Z,3.77
2019-01-17T11:16:39.792Z,3.75
2019-01-17T11:19:39.035Z,2.15
2019-01-17T11:22:41.356Z,2.15
2019-01-17T11:25:49.148Z,2.72
2019-01-17T11:28:32.073Z,2.40
2019-01-17T11:31:40.662Z,2.80
2019-01-17T11:34:35.108Z,2.70
2019-01-17T11:37:46.560Z,3.95
2019-01-17T11:41:01.163Z,4.55
2019-01-17T11:44:06.919Z,2.45
2019-01-17T11:47:16.788Z,2.40
2019-01-17T11:50:43.347Z,2.33
2019-01-17T11:53:54.214Z,2.62
2019-01-17T11:56:30.251Z,2.60
2019-01-17T11:59:16.536Z,3.47
2019-01-17T12:02:31.747Z,1.90
2019-01-17T12:05:01.785Z,2.40
2019-01-17T12:07:44.063Z,4.35
2019-01-17T12:10:15.661Z,2.10
2019-01-17T12:12:45.963Z,1.80
2019-01-17T12:15:16.071Z,2.50
2019-01-17T12:17:46.220Z,2.90
2019-01-17T12:20:16.325Z,2.40
2019-01-17T12:22:46.395Z,2.12
2019-01-17T12:25:16.487Z,2.10
2019-01-17T12:27:46.652Z,1.67
2019-01-17T12:30:16.802Z,2.80
2019-01-17T12:32:46.895Z,2.52
2019-01-17T12:35:17.080Z,2.15
2019-01-17T12:37:47.175Z,1.77
2019-01-17T12:40:17.382Z,1.98
2019-01-17T12:42:47.397Z,1.92
2019-01-17T12:45:17.534Z,2.33
2019-01-17T12:47:47.632Z,1.60
2019-01-17T12:50:19.146Z,2.85
2019-01-17T12:52:49.236Z,2.02
2019-01-17T12:55:19.403Z,2.00
2019-01-17T12:57:49.517Z,2.85
2019-01-17T13:00:20.953Z,1.47
2019-01-17T13:02:51.310Z,1.67
2019-01-17T13:05:21.408Z,1.50
2019-01-17T13:07:51.459Z,2.05
2019-01-17T13:10:21.647Z,2.12
2019-01-17T13:12:51.753Z,2.60
2019-01-17T13:15:21.936Z,1.60
2019-01-17T13:17:52.041Z,2.00
2019-01-17T13:20:22.191Z,1.70
2019-01-17T13:22:52.284Z,1.70
2019-01-17T13:25:22.496Z,1.62
2019-01-17T13:27:52.588Z,1.45
2019-01-17T13:30:23.777Z,1.95
2019-01-17T13:32:53.798Z,1.50
2019-01-17T13:35:23.895Z,1.50
2019-01-17T13:37:53.996Z,1.82
2019-01-17T13:40:24.138Z,2.72
2019-01-17T13:42:54.163Z,1.50
2019-01-17T13:45:24.241Z,1.77
2019-01-17T13:47:54.268Z,2.52
2019-01-17T13:50:24.416Z,2.33
2019-01-17T13:52:54.518Z,1.92
2019-01-17T13:55:24.697Z,2.15
2019-01-17T13:57:54.784Z,2.90
2019-01-17T14:00:24.948Z,3.05
2019-01-17T14:02:55.586Z,3.10
2019-01-17T14:05:25.728Z,3.52
2019-01-17T14:07:55.929Z,2.87
2019-01-17T14:10:26.043Z,2.50
2019-01-17T14:12:56.160Z,4.05
2019-01-17T14:15:28.438Z,4.92
2019-01-17T14:17:58.484Z,3.10
2019-01-17T14:20:29.680Z,2.50
2019-01-17T14:22:59.732Z,3.22
2019-01-17T14:25:29.925Z,3.70
2019-01-17T14:27:59.974Z,2.45
2019-01-17T14:30:31.640Z,2.52
2019-01-17T14:33:01.696Z,3.37
2019-01-17T14:35:31.766Z,3.27
2019-01-17T14:38:01.806Z,2.65
2019-01-17T14:40:31.946Z,2.15
2019-01-17T14:43:02.040Z,2.60
2019-01-17T14:45:32.326Z,1.95
2019-01-17T14:48:02.433Z,2.90
2019-01-17T14:50:32.964Z,2.10
2019-01-17T14:53:03.192Z,1.60
2019-01-17T14:55:33.364Z,2.83
2019-01-17T14:58:03.547Z,2.98
2019-01-17T15:00:34.510Z,2.05
2019-01-17T15:03:04.673Z,1.82
2019-01-17T15:05:34.767Z,1.57
2019-01-17T15:08:04.844Z,1.75
2019-01-17T15:10:41.814Z,1.57
2019-01-17T15:13:11.913Z,1.70
2019-01-17T15:15:42.051Z,2.30
2019-01-17T15:18:12.197Z,2.92
2019-01-17T15:20:42.248Z,1.72
2019-01-17T15:23:13.131Z,1.55
2019-01-17T15:25:43.277Z,1.77
2019-01-17T15:28:13.319Z,3.58
2019-01-17T15:30:43.439Z,1.77
2019-01-17T15:33:13.519Z,1.72
2019-01-17T15:35:43.602Z,3.55
2019-01-17T15:38:13.579Z,1.77
2019-01-17T15:40:43.819Z,2.12
2019-01-17T15:43:13.897Z,1.92
2019-01-17T15:45:45.628Z,2.00
2019-01-17T15:48:15.845Z,2.12
2019-01-17T15:50:45.940Z,2.20
2019-01-17T15:53:16.175Z,2.52
2019-01-17T15:55:46.576Z,2.15
2019-01-17T15:58:16.813Z,2.12
2019-01-17T16:00:47.061Z,2.52
2019-01-17T16:03:17.429Z,2.35
2019-01-17T16:05:47.867Z,2.10
2019-01-17T16:08:18.121Z,3.75
2019-01-17T16:10:48.241Z,2.10
2019-01-17T16:13:18.406Z,2.45
2019-01-17T16:15:49.582Z,7.92
2019-01-17T16:18:19.753Z,3.95
2019-01-17T16:20:49.908Z,2.00
2019-01-17T16:23:20.049Z,2.00
2019-01-17T16:25:50.254Z,2.52
2019-01-17T16:28:20.359Z,2.72
2019-01-17T16:30:50.566Z,1.87
2019-01-17T16:33:20.725Z,2.20
2019-01-17T16:35:50.976Z,2.83
2019-01-17T16:38:21.164Z,2.45
2019-01-17T16:40:51.263Z,2.47
2019-01-17T16:43:23.055Z,2.22
2019-01-17T16:45:55.929Z,1.95
2019-01-17T16:48:26.092Z,2.87
2019-01-17T16:50:56.209Z,2.27
2019-01-17T16:53:26.392Z,2.20
2019-01-17T16:55:56.549Z,2.30
2019-01-17T16:58:27.926Z,4.03
2019-01-17T17:01:00.917Z,3.27
2019-01-17T17:03:36.361Z,2.83
2019-01-17T17:06:06.908Z,2.95
2019-01-17T17:08:37.974Z,3.58
2019-01-17T17:11:08.958Z,2.55
2019-01-17T17:13:39.002Z,2.08
2019-01-17T17:16:09.121Z,1.98
2019-01-17T17:18:39.385Z,2.30
2019-01-17T17:21:10.647Z,2.80
2019-01-17T17:23:40.831Z,2.00
2019-01-17T17:26:11.215Z,1.87
2019-01-17T17:28:41.398Z,2.27
2019-01-17T17:31:12.613Z,2.80
2019-01-17T17:33:42.732Z,1.92
2019-01-17T17:36:13.147Z,2.17
2019-01-17T17:38:43.205Z,2.08
2019-01-17T17:41:13.513Z,1.62
2019-01-17T17:43:45.479Z,2.00
2019-01-17T17:46:15.725Z,2.40
2019-01-17T17:48:46.072Z,2.45
2019-01-17T17:51:17.397Z,2.08
2019-01-17T17:53:47.491Z,2.12
2019-01-17T17:56:17.721Z,2.08
2019-01-17T17:58:48.967Z,3.62
2019-01-17T18:01:26.256Z,2.05
2019-01-17T18:03:56.596Z,2.20
2019-01-17T18:06:26.805Z,1.62
2019-01-17T18:08:57.005Z,1.70
2019-01-17T18:11:27.120Z,1.77
2019-01-17T18:13:57.392Z,1.77
2019-01-17T18:16:27.640Z,2.33
2019-01-17T18:18:57.839Z,1.80
2019-01-17T18:21:28.102Z,1.92
2019-01-17T18:23:58.248Z,1.95
2019-01-17T18:26:28.376Z,1.70
2019-01-17T18:28:58.563Z,1.75
2019-01-17T18:31:28.730Z,2.25
2019-01-17T18:33:58.886Z,1.95
2019-01-17T18:36:29.172Z,1.75
2019-01-17T18:38:59.365Z,2.10
2019-01-17T18:41:29.469Z,1.77
2019-01-17T18:43:59.598Z,1.62
2019-01-17T18:46:29.766Z,2.37
2019-01-17T18:48:59.902Z,1.60
2019-01-17T18:51:30.049Z,1.60
2019-01-17T18:54:01.177Z,1.60
2019-01-17T18:56:31.352Z,1.90
2019-01-17T18:59:01.510Z,1.57
2019-01-17T19:01:31.729Z,2.08
2019-01-17T19:04:04.023Z,1.90
2019-01-17T19:06:34.205Z,1.50
2019-01-17T19:09:05.902Z,1.55
2019-01-17T19:11:36.137Z,2.15
2019-01-17T19:14:06.334Z,2.33
2019-01-17T19:16:36.627Z,1.90
2019-01-17T19:19:06.790Z,2.25
2019-01-17T19:21:36.890Z,3.52
2019-01-17T19:24:07.039Z,2.98
2019-01-17T19:26:37.293Z,2.35
2019-01-17T19:29:07.627Z,2.35
2019-01-17T19:31:38.090Z,2.45
2019-01-17T19:34:09.045Z,2.00
2019-01-17T19:36:39.364Z,1.82
2019-01-17T19:39:11.352Z,2.10
2019-01-17T19:41:41.567Z,2.42
2019-01-17T19:44:11.702Z,2.02
2019-01-17T19:46:42.471Z,1.80
2019-01-17T19:49:14.021Z,1.95
2019-01-17T19:51:44.265Z,1.90
2019-01-17T19:54:14.623Z,1.80
2019-01-17T19:56:44.806Z,2.27
2019-01-17T19:59:16.241Z,4.03
2019-01-17T20:01:46.386Z,2.20
2019-01-17T20:04:16.807Z,2.40
2019-01-17T20:06:47.079Z,2.47
2019-01-17T20:09:18.887Z,2.20
2019-01-17T20:11:49.152Z,2.47
2019-01-17T20:14:19.289Z,2.30
2019-01-17T20:16:50.620Z,2.12
2019-01-17T20:19:20.795Z,2.87
2019-01-17T20:21:50.958Z,2.47
2019-01-17T20:24:21.221Z,2.65
2019-01-17T20:26:52.800Z,2.12
2019-01-17T20:29:23.191Z,2.67
2019-01-17T20:31:53.569Z,2.58
2019-01-17T20:34:23.777Z,2.95
2019-01-17T20:36:53.931Z,3.10
2019-01-17T20:39:24.175Z,3.62
2019-01-17T20:41:54.334Z,3.02
2019-01-17T20:44:24.585Z,2.65
2019-01-17T20:46:56.281Z,2.62
2019-01-17T20:49:28.017Z,4.72
2019-01-17T20:51:58.664Z,2.72
2019-01-17T20:54:29.022Z,3.20
2019-01-17T20:56:59.604Z,3.00
2019-01-17T20:59:31.139Z,3.25
2019-01-17T21:02:14.267Z,2.65
2019-01-17T21:04:45.251Z,3.42
2019-01-17T21:07:15.790Z,3.12
2019-01-17T21:09:47.156Z,3.42
2019-01-17T21:12:17.751Z,3.72
2019-01-17T21:14:47.894Z,3.27
2019-01-17T21:17:18.356Z,2.55
2019-01-17T21:19:48.587Z,2.65
2019-01-17T21:22:18.923Z,3.05
2019-01-17T21:24:49.339Z,3.50
2019-01-17T21:27:19.741Z,4.10
2019-01-17T21:29:49.793Z,3.58
2019-01-17T21:32:19.965Z,3.20
2019-01-17T21:34:50.209Z,3.60
2019-01-17T21:37:20.470Z,3.37
2019-01-17T21:39:51.741Z,3.40
2019-01-17T21:42:23.132Z,3.60
2019-01-17T21:44:53.252Z,5.62
2019-01-17T21:47:23.702Z,4.20
2019-01-17T21:49:53.894Z,5.12
2019-01-17T21:52:24.263Z,3.83
2019-01-17T21:54:54.497Z,3.72
2019-01-17T21:57:24.726Z,4.03
2019-01-17T21:59:55.204Z,3.75
2019-01-17T22:02:25.507Z,5.35
2019-01-17T22:04:57.169Z,5.05
2019-01-17T22:07:28.887Z,5.17
2019-01-17T22:10:01.732Z,4.20
2019-01-17T22:12:30.919Z,4.95
2019-01-17T22:15:02.227Z,6.25
2019-01-17T22:17:32.434Z,4.00
2019-01-17T22:20:02.704Z,4.25
2019-01-17T22:22:34.676Z,3.65
2019-01-17T22:25:05.720Z,5.12
2019-01-17T22:27:35.814Z,3.87
2019-01-17T22:30:08.711Z,4.10
2019-01-17T22:32:38.905Z,3.45
2019-01-17T22:35:08.871Z,3.00
2019-01-17T22:37:39.357Z,4.15
2019-01-17T22:40:10.905Z,3.35
2019-01-17T22:42:41.005Z,3.55
2019-01-17T22:45:13.710Z,2.87
2019-01-17T22:47:43.813Z,3.67
2019-01-17T22:50:14.988Z,4.60
2019-01-17T22:52:45.419Z,3.25
2019-01-17T22:55:15.556Z,3.35
2019-01-17T22:57:46.874Z,4.08
2019-01-17T23:00:51.768Z,2.77
2019-01-17T23:03:28.005Z,6.62
2019-01-17T23:05:58.175Z,3.33
2019-01-17T23:08:28.358Z,3.10
2019-01-17T23:10:58.503Z,3.55
2019-01-17T23:13:28.715Z,5.65
2019-01-17T23:15:59.825Z,2.70
2019-01-17T23:18:30.119Z,3.25
2019-01-17T23:21:00.210Z,2.65
2019-01-17T23:23:30.395Z,2.85
2019-01-17T23:26:00.616Z,4.60
2019-01-17T23:28:30.991Z,2.35
2019-01-17T23:31:01.107Z,2.80
2019-01-17T23:33:31.522Z,2.22
2019-01-17T23:36:01.677Z,2.30
2019-01-17T23:38:31.879Z,2.85
2019-01-17T23:41:01.907Z,2.00
2019-01-17T23:43:32.012Z,2.17
2019-01-17T23:46:02.153Z,3.40
2019-01-17T23:48:32.321Z,4.55
2019-01-17T23:51:02.437Z,4.15
2019-01-17T23:53:32.528Z,1.87
2019-01-17T23:56:02.585Z,2.47
2019-01-17T23:58:32.659Z,2.55
